Reva, South Dakota
Current Conditions -  °F | °C
As of 5:53 PM on Friday 24 Oct 2014 (Local Time) from KHEI Reporting Station
Overcast Overcast  
Wind Chill: 54°   Ceiling: 11000
Heat Index: 54°   Visibility: 10mi
Dew Point: 33°   Wind: 7mph
Humidity: 45%   Direction: 280°W
Pressure: 30.05"   Gusts: NA
Location:  45.55°N, 103.08°W
Report Text: KHEI 242353Z AUTO 28006KT 10SM OVC110 12/01 A3005 RMK AO2 SLP182 T01220006 10194 20122 53014
Loading
Personal Weather Stations






























Interactive Weather Map
Tropical Storm Tracking
New forecast layout! Learn more

10-Day Weather Forecast

Advertisements
Track Severe Weather on mobile